sensor_id;sensor_type;location;lat;lon;timestamp;temperature;humidity
25092;DHT22;13082;52.374;4.946;2022-12-15T00:01:36;2.50;99.90
25092;DHT22;13082;52.374;4.946;2022-12-15T00:04:20;2.40;99.90
25092;DHT22;13082;52.374;4.946;2022-12-15T00:07:04;2.40;99.90
25092;DHT22;13082;52.374;4.946;2022-12-15T00:09:48;2.40;99.90
25092;DHT22;13082;52.374;4.946;2022-12-15T00:12:32;2.40;99.90
25092;DHT22;13082;52.374;4.946;2022-12-15T00:15:16;2.40;99.90
25092;DHT22;13082;52.374;4.946;2022-12-15T00:18:07;2.40;99.90
25092;DHT22;13082;52.374;4.946;2022-12-15T00:20:51;2.40;99.90
25092;DHT22;13082;52.374;4.946;2022-12-15T00:23:39;2.40;99.90
25092;DHT22;13082;52.374;4.946;2022-12-15T00:26:23;2.40;99.90
25092;DHT22;13082;52.374;4.946;2022-12-15T00:29:07;2.40;99.90
25092;DHT22;13082;52.374;4.946;2022-12-15T00:31:51;2.40;99.90
25092;DHT22;13082;52.374;4.946;2022-12-15T00:34:35;2.30;99.90
25092;DHT22;13082;52.374;4.946;2022-12-15T00:37:19;2.30;99.90
25092;DHT22;13082;52.374;4.946;2022-12-15T00:40:04;2.30;99.90
25092;DHT22;13082;52.374;4.946;2022-12-15T00:42:31;2.40;99.90
25092;DHT22;13082;52.374;4.946;2022-12-15T00:44:57;2.50;99.90
25092;DHT22;13082;52.374;4.946;2022-12-15T00:47:23;2.40;99.90
25092;DHT22;13082;52.374;4.946;2022-12-15T00:49:49;2.40;99.90
25092;DHT22;13082;52.374;4.946;2022-12-15T00:52:33;2.40;99.90
25092;DHT22;13082;52.374;4.946;2022-12-15T00:55:18;2.30;99.90
25092;DHT22;13082;52.374;4.946;2022-12-15T00:58:02;2.20;99.90
25092;DHT22;13082;52.374;4.946;2022-12-15T01:00:46;2.20;99.90
25092;DHT22;13082;52.374;4.946;2022-12-15T01:03:30;2.20;99.90
25092;DHT22;13082;52.374;4.946;2022-12-15T01:06:16;2.10;99.90
25092;DHT22;13082;52.374;4.946;2022-12-15T01:09:02;1.90;99.90
25092;DHT22;13082;52.374;4.946;2022-12-15T01:11:47;1.90;99.90
25092;DHT22;13082;52.374;4.946;2022-12-15T01:14:32;1.90;99.90
25092;DHT22;13082;52.374;4.946;2022-12-15T01:17:16;2.00;99.90
25092;DHT22;13082;52.374;4.946;2022-12-15T01:20:01;2.00;99.90
25092;DHT22;13082;52.374;4.946;2022-12-15T01:22:50;1.90;99.90
25092;DHT22;13082;52.374;4.946;2022-12-15T01:25:18;1.90;99.90
25092;DHT22;13082;52.374;4.946;2022-12-15T01:27:44;1.80;99.90
25092;DHT22;13082;52.374;4.946;2022-12-15T01:30:12;1.70;99.90
25092;DHT22;13082;52.374;4.946;2022-12-15T01:32:38;1.70;99.90
25092;DHT22;13082;52.374;4.946;2022-12-15T01:35:04;1.70;99.90
25092;DHT22;13082;52.374;4.946;2022-12-15T01:37:30;1.70;99.90
25092;DHT22;13082;52.374;4.946;2022-12-15T01:39:56;1.80;99.90
25092;DHT22;13082;52.374;4.946;2022-12-15T01:42:40;1.90;99.90
25092;DHT22;13082;52.374;4.946;2022-12-15T01:48:03;2.10;99.90
25092;DHT22;13082;52.374;4.946;2022-12-15T01:50:32;2.10;99.90
25092;DHT22;13082;52.374;4.946;2022-12-15T01:53:01;2.10;99.90
25092;DHT22;13082;52.374;4.946;2022-12-15T01:55:28;2.10;99.90
25092;DHT22;13082;52.374;4.946;2022-12-15T01:58:01;2.20;99.90
25092;DHT22;13082;52.374;4.946;2022-12-15T02:00:29;2.20;99.90
25092;DHT22;13082;52.374;4.946;2022-12-15T02:02:56;2.30;99.90
25092;DHT22;13082;52.374;4.946;2022-12-15T02:05:23;2.30;99.90
25092;DHT22;13082;52.374;4.946;2022-12-15T02:07:49;2.40;99.90
25092;DHT22;13082;52.374;4.946;2022-12-15T02:10:15;2.50;99.90
25092;DHT22;13082;52.374;4.946;2022-12-15T02:12:50;2.50;99.90
25092;DHT22;13082;52.374;4.946;2022-12-15T02:15:23;2.50;99.90
25092;DHT22;13082;52.374;4.946;2022-12-15T02:18:16;2.60;99.90
25092;DHT22;13082;52.374;4.946;2022-12-15T02:21:09;2.50;99.90
25092;DHT22;13082;52.374;4.946;2022-12-15T02:27:10;2.10;99.90
25092;DHT22;13082;52.374;4.946;2022-12-15T02:32:29;1.60;99.90
25092;DHT22;13082;52.374;4.946;2022-12-15T02:35:05;1.60;99.90
25092;DHT22;13082;52.374;4.946;2022-12-15T02:37:35;1.50;99.90
25092;DHT22;13082;52.374;4.946;2022-12-15T02:40:03;1.50;99.90
25092;DHT22;13082;52.374;4.946;2022-12-15T02:42:30;1.50;99.90
25092;DHT22;13082;52.374;4.946;2022-12-15T02:45:02;1.40;99.90
25092;DHT22;13082;52.374;4.946;2022-12-15T02:50:37;1.40;99.90
25092;DHT22;13082;52.374;4.946;2022-12-15T02:53:22;1.40;99.90
25092;DHT22;13082;52.374;4.946;2022-12-15T02:58:35;1.40;99.90
25092;DHT22;13082;52.374;4.946;2022-12-15T03:01:20;1.50;99.90
25092;DHT22;13082;52.374;4.946;2022-12-15T03:03:47;1.60;99.90
25092;DHT22;13082;52.374;4.946;2022-12-15T03:06:15;1.70;99.90
25092;DHT22;13082;52.374;4.946;2022-12-15T03:08:41;1.90;99.90
25092;DHT22;13082;52.374;4.946;2022-12-15T03:11:06;1.90;99.90
25092;DHT22;13082;52.374;4.946;2022-12-15T03:13:32;1.90;99.90
25092;DHT22;13082;52.374;4.946;2022-12-15T03:15:59;1.80;99.90
25092;DHT22;13082;52.374;4.946;2022-12-15T03:18:24;1.70;99.90
25092;DHT22;13082;52.374;4.946;2022-12-15T03:20:50;1.60;99.90
25092;DHT22;13082;52.374;4.946;2022-12-15T03:23:16;1.50;99.90
25092;DHT22;13082;52.374;4.946;2022-12-15T03:25:46;1.50;99.90
25092;DHT22;13082;52.374;4.946;2022-12-15T03:28:12;1.50;99.90
25092;DHT22;13082;52.374;4.946;2022-12-15T03:30:37;1.50;99.90
25092;DHT22;13082;52.374;4.946;2022-12-15T03:33:03;1.50;99.90
25092;DHT22;13082;52.374;4.946;2022-12-15T03:35:29;1.50;99.90
25092;DHT22;13082;52.374;4.946;2022-12-15T03:37:55;1.50;99.90
25092;DHT22;13082;52.374;4.946;2022-12-15T03:40:20;1.50;99.90
25092;DHT22;13082;52.374;4.946;2022-12-15T03:42:46;1.50;99.90
25092;DHT22;13082;52.374;4.946;2022-12-15T03:45:15;1.50;99.90
25092;DHT22;13082;52.374;4.946;2022-12-15T03:47:43;1.50;99.90
25092;DHT22;13082;52.374;4.946;2022-12-15T03:50:09;1.50;99.90
25092;DHT22;13082;52.374;4.946;2022-12-15T03:52:35;1.40;99.90
25092;DHT22;13082;52.374;4.946;2022-12-15T03:55:02;1.40;99.90
25092;DHT22;13082;52.374;4.946;2022-12-15T03:57:28;1.30;99.90
25092;DHT22;13082;52.374;4.946;2022-12-15T03:59:53;1.30;99.90
25092;DHT22;13082;52.374;4.946;2022-12-15T04:02:19;1.30;99.90
25092;DHT22;13082;52.374;4.946;2022-12-15T04:04:45;1.30;99.90
25092;DHT22;13082;52.374;4.946;2022-12-15T04:07:11;1.30;99.90
25092;DHT22;13082;52.374;4.946;2022-12-15T04:09:37;1.30;99.90
25092;DHT22;13082;52.374;4.946;2022-12-15T04:12:03;1.30;99.90
25092;DHT22;13082;52.374;4.946;2022-12-15T04:14:29;1.40;99.90
25092;DHT22;13082;52.374;4.946;2022-12-15T04:16:55;1.40;99.90
25092;DHT22;13082;52.374;4.946;2022-12-15T04:19:21;1.40;99.90
25092;DHT22;13082;52.374;4.946;2022-12-15T04:22:05;1.40;99.90
25092;DHT22;13082;52.374;4.946;2022-12-15T04:24:30;1.40;99.90
25092;DHT22;13082;52.374;4.946;2022-12-15T04:27:15;1.40;99.90
25092;DHT22;13082;52.374;4.946;2022-12-15T04:29:59;1.40;99.90
25092;DHT22;13082;52.374;4.946;2022-12-15T04:32:43;1.40;99.90
25092;DHT22;13082;52.374;4.946;2022-12-15T04:35:27;1.40;99.90
25092;DHT22;13082;52.374;4.946;2022-12-15T04:38:11;1.40;99.90
25092;DHT22;13082;52.374;4.946;2022-12-15T04:40:55;1.40;99.90
25092;DHT22;13082;52.374;4.946;2022-12-15T04:43:39;1.40;99.90
25092;DHT22;13082;52.374;4.946;2022-12-15T04:46:24;1.40;99.90
25092;DHT22;13082;52.374;4.946;2022-12-15T04:49:08;1.40;99.90
25092;DHT22;13082;52.374;4.946;2022-12-15T04:51:52;1.40;99.90
25092;DHT22;13082;52.374;4.946;2022-12-15T04:54:36;1.40;99.90
25092;DHT22;13082;52.374;4.946;2022-12-15T04:57:20;1.40;99.90
25092;DHT22;13082;52.374;4.946;2022-12-15T05:00:04;1.40;99.90
25092;DHT22;13082;52.374;4.946;2022-12-15T05:02:49;1.30;99.90
25092;DHT22;13082;52.374;4.946;2022-12-15T05:05:33;1.20;99.90
25092;DHT22;13082;52.374;4.946;2022-12-15T05:08:17;1.10;99.90
25092;DHT22;13082;52.374;4.946;2022-12-15T05:11:01;1.10;99.90
25092;DHT22;13082;52.374;4.946;2022-12-15T05:13:45;0.90;99.90
25092;DHT22;13082;52.374;4.946;2022-12-15T05:16:29;0.90;99.90
25092;DHT22;13082;52.374;4.946;2022-12-15T05:19:13;0.70;99.90
25092;DHT22;13082;52.374;4.946;2022-12-15T05:21:57;0.60;99.90
25092;DHT22;13082;52.374;4.946;2022-12-15T05:24:41;0.60;99.90
25092;DHT22;13082;52.374;4.946;2022-12-15T05:27:25;0.60;99.90
25092;DHT22;13082;52.374;4.946;2022-12-15T05:30:09;0.60;99.90
25092;DHT22;13082;52.374;4.946;2022-12-15T05:32:54;0.60;99.90
25092;DHT22;13082;52.374;4.946;2022-12-15T05:35:19;0.70;99.90
25092;DHT22;13082;52.374;4.946;2022-12-15T05:37:45;0.70;99.90
25092;DHT22;13082;52.374;4.946;2022-12-15T05:40:11;0.70;99.90
25092;DHT22;13082;52.374;4.946;2022-12-15T05:42:36;0.70;99.90
25092;DHT22;13082;52.374;4.946;2022-12-15T05:45:02;0.80;99.90
25092;DHT22;13082;52.374;4.946;2022-12-15T05:47:29;0.80;99.90
25092;DHT22;13082;52.374;4.946;2022-12-15T05:49:55;0.80;99.90
25092;DHT22;13082;52.374;4.946;2022-12-15T05:52:20;0.70;99.90
25092;DHT22;13082;52.374;4.946;2022-12-15T05:54:46;0.70;99.90
25092;DHT22;13082;52.374;4.946;2022-12-15T05:57:11;0.70;99.90
25092;DHT22;13082;52.374;4.946;2022-12-15T05:59:37;0.70;99.90
25092;DHT22;13082;52.374;4.946;2022-12-15T06:02:03;0.70;99.90
25092;DHT22;13082;52.374;4.946;2022-12-15T06:04:28;0.80;99.90
25092;DHT22;13082;52.374;4.946;2022-12-15T06:06:54;0.80;99.90
25092;DHT22;13082;52.374;4.946;2022-12-15T06:09:19;0.80;99.90
25092;DHT22;13082;52.374;4.946;2022-12-15T06:11:45;0.80;99.90
25092;DHT22;13082;52.374;4.946;2022-12-15T06:14:11;0.80;99.90
25092;DHT22;13082;52.374;4.946;2022-12-15T06:16:37;0.90;99.90
25092;DHT22;13082;52.374;4.946;2022-12-15T06:19:03;0.90;99.90
25092;DHT22;13082;52.374;4.946;2022-12-15T06:21:31;0.90;99.90
25092;DHT22;13082;52.374;4.946;2022-12-15T06:23:57;1.00;99.90
25092;DHT22;13082;52.374;4.946;2022-12-15T06:28:51;1.00;99.90
25092;DHT22;13082;52.374;4.946;2022-12-15T06:31:19;1.00;99.90
25092;DHT22;13082;52.374;4.946;2022-12-15T06:33:52;1.00;99.90
25092;DHT22;13082;52.374;4.946;2022-12-15T06:36:20;1.00;99.90
25092;DHT22;13082;52.374;4.946;2022-12-15T06:38:46;1.00;99.90
25092;DHT22;13082;52.374;4.946;2022-12-15T06:41:15;1.00;99.90
25092;DHT22;13082;52.374;4.946;2022-12-15T06:43:41;1.00;99.90
25092;DHT22;13082;52.374;4.946;2022-12-15T06:46:07;1.00;99.90
25092;DHT22;13082;52.374;4.946;2022-12-15T06:48:33;1.00;99.90
25092;DHT22;13082;52.374;4.946;2022-12-15T06:51:06;1.00;99.90
25092;DHT22;13082;52.374;4.946;2022-12-15T06:53:35;1.00;99.90
25092;DHT22;13082;52.374;4.946;2022-12-15T06:56:04;1.00;99.90
25092;DHT22;13082;52.374;4.946;2022-12-15T06:58:31;1.00;99.90
25092;DHT22;13082;52.374;4.946;2022-12-15T07:00:57;1.10;99.90
25092;DHT22;13082;52.374;4.946;2022-12-15T07:03:23;1.00;99.90
25092;DHT22;13082;52.374;4.946;2022-12-15T07:06:03;1.00;99.90
25092;DHT22;13082;52.374;4.946;2022-12-15T07:08:29;1.00;99.90
25092;DHT22;13082;52.374;4.946;2022-12-15T07:10:55;1.10;99.90
25092;DHT22;13082;52.374;4.946;2022-12-15T07:13:20;1.20;99.90
25092;DHT22;13082;52.374;4.946;2022-12-15T07:15:46;1.20;99.90
25092;DHT22;13082;52.374;4.946;2022-12-15T07:18:15;1.20;99.90
25092;DHT22;13082;52.374;4.946;2022-12-15T07:20:40;1.20;99.90
25092;DHT22;13082;52.374;4.946;2022-12-15T07:23:06;1.30;99.90
25092;DHT22;13082;52.374;4.946;2022-12-15T07:25:38;1.30;99.90
25092;DHT22;13082;52.374;4.946;2022-12-15T07:28:05;1.30;99.90
25092;DHT22;13082;52.374;4.946;2022-12-15T07:30:32;1.30;99.90
25092;DHT22;13082;52.374;4.946;2022-12-15T07:32:58;1.30;99.90
25092;DHT22;13082;52.374;4.946;2022-12-15T07:35:24;1.30;99.90
25092;DHT22;13082;52.374;4.946;2022-12-15T07:37:49;1.30;99.90
25092;DHT22;13082;52.374;4.946;2022-12-15T07:40:15;1.30;99.90
25092;DHT22;13082;52.374;4.946;2022-12-15T07:42:41;1.30;99.90
25092;DHT22;13082;52.374;4.946;2022-12-15T07:45:07;1.30;99.90
25092;DHT22;13082;52.374;4.946;2022-12-15T07:47:33;1.30;99.90
25092;DHT22;13082;52.374;4.946;2022-12-15T07:50:00;1.30;99.90
25092;DHT22;13082;52.374;4.946;2022-12-15T07:52:26;1.30;99.90
25092;DHT22;13082;52.374;4.946;2022-12-15T07:54:52;1.30;99.90
25092;DHT22;13082;52.374;4.946;2022-12-15T07:57:17;1.30;99.90
25092;DHT22;13082;52.374;4.946;2022-12-15T07:59:43;1.30;99.90
25092;DHT22;13082;52.374;4.946;2022-12-15T08:02:10;1.30;99.90
25092;DHT22;13082;52.374;4.946;2022-12-15T08:04:36;1.30;99.90
25092;DHT22;13082;52.374;4.946;2022-12-15T08:07:02;1.30;99.90
25092;DHT22;13082;52.374;4.946;2022-12-15T08:09:28;1.30;99.90
25092;DHT22;13082;52.374;4.946;2022-12-15T08:11:53;1.40;99.90
25092;DHT22;13082;52.374;4.946;2022-12-15T08:14:19;1.40;99.90
25092;DHT22;13082;52.374;4.946;2022-12-15T08:16:45;1.40;99.90
25092;DHT22;13082;52.374;4.946;2022-12-15T08:19:12;1.30;99.90
25092;DHT22;13082;52.374;4.946;2022-12-15T08:21:39;1.40;99.90
25092;DHT22;13082;52.374;4.946;2022-12-15T08:24:05;1.40;99.90
25092;DHT22;13082;52.374;4.946;2022-12-15T08:26:32;1.40;99.90
25092;DHT22;13082;52.374;4.946;2022-12-15T08:29:03;1.50;99.90
25092;DHT22;13082;52.374;4.946;2022-12-15T08:31:30;1.60;99.90
25092;DHT22;13082;52.374;4.946;2022-12-15T08:33:58;1.60;99.90
25092;DHT22;13082;52.374;4.946;2022-12-15T08:36:24;1.70;99.90
25092;DHT22;13082;52.374;4.946;2022-12-15T08:38:50;1.90;99.90
25092;DHT22;13082;52.374;4.946;2022-12-15T08:41:19;1.90;99.90
25092;DHT22;13082;52.374;4.946;2022-12-15T08:43:46;1.90;99.90
25092;DHT22;13082;52.374;4.946;2022-12-15T08:46:12;2.00;99.90
25092;DHT22;13082;52.374;4.946;2022-12-15T08:48:38;1.90;99.90
25092;DHT22;13082;52.374;4.946;2022-12-15T08:51:04;1.90;99.90
25092;DHT22;13082;52.374;4.946;2022-12-15T08:53:33;1.80;99.90
25092;DHT22;13082;52.374;4.946;2022-12-15T08:56:08;1.80;99.90
25092;DHT22;13082;52.374;4.946;2022-12-15T08:58:47;1.70;99.90
25092;DHT22;13082;52.374;4.946;2022-12-15T09:01:18;1.70;99.90
25092;DHT22;13082;52.374;4.946;2022-12-15T09:03:47;1.70;99.90
25092;DHT22;13082;52.374;4.946;2022-12-15T09:06:15;1.70;99.90
25092;DHT22;13082;52.374;4.946;2022-12-15T09:08:42;1.70;99.90
25092;DHT22;13082;52.374;4.946;2022-12-15T09:11:07;1.80;99.90
25092;DHT22;13082;52.374;4.946;2022-12-15T09:13:33;2.00;99.90
25092;DHT22;13082;52.374;4.946;2022-12-15T09:16:04;2.20;99.90
25092;DHT22;13082;52.374;4.946;2022-12-15T09:18:30;2.30;99.90
25092;DHT22;13082;52.374;4.946;2022-12-15T09:21:00;2.40;99.90
25092;DHT22;13082;52.374;4.946;2022-12-15T09:23:27;2.40;99.90
25092;DHT22;13082;52.374;4.946;2022-12-15T09:26:05;2.40;99.90
25092;DHT22;13082;52.374;4.946;2022-12-15T09:28:31;2.50;99.90
25092;DHT22;13082;52.374;4.946;2022-12-15T09:31:03;2.50;99.90
25092;DHT22;13082;52.374;4.946;2022-12-15T09:33:29;2.50;99.90
25092;DHT22;13082;52.374;4.946;2022-12-15T09:35:55;2.50;99.90
25092;DHT22;13082;52.374;4.946;2022-12-15T09:38:21;2.60;99.90
25092;DHT22;13082;52.374;4.946;2022-12-15T09:40:47;2.60;99.90
25092;DHT22;13082;52.374;4.946;2022-12-15T09:43:17;2.70;99.90
25092;DHT22;13082;52.374;4.946;2022-12-15T09:45:49;2.90;99.90
25092;DHT22;13082;52.374;4.946;2022-12-15T09:48:18;3.10;99.90
25092;DHT22;13082;52.374;4.946;2022-12-15T09:50:47;3.30;99.90
25092;DHT22;13082;52.374;4.946;2022-12-15T09:53:16;3.40;99.90
25092;DHT22;13082;52.374;4.946;2022-12-15T09:55:45;3.40;99.90
25092;DHT22;13082;52.374;4.946;2022-12-15T10:09:49;2.80;99.90
25092;DHT22;13082;52.374;4.946;2022-12-15T10:12:27;2.90;99.90
25092;DHT22;13082;52.374;4.946;2022-12-15T10:15:23;2.90;99.90
25092;DHT22;13082;52.374;4.946;2022-12-15T10:18:12;3.10;99.90
25092;DHT22;13082;52.374;4.946;2022-12-15T10:20:43;3.10;99.90
25092;DHT22;13082;52.374;4.946;2022-12-15T10:23:13;3.10;99.90
25092;DHT22;13082;52.374;4.946;2022-12-15T10:25:46;3.10;99.90
25092;DHT22;13082;52.374;4.946;2022-12-15T10:31:11;3.20;99.90
25092;DHT22;13082;52.374;4.946;2022-12-15T10:33:41;3.40;99.90
25092;DHT22;13082;52.374;4.946;2022-12-15T10:36:12;3.70;99.90
25092;DHT22;13082;52.374;4.946;2022-12-15T10:38:48;3.90;99.90
25092;DHT22;13082;52.374;4.946;2022-12-15T10:41:16;4.10;99.90
25092;DHT22;13082;52.374;4.946;2022-12-15T10:43:48;4.30;99.90
25092;DHT22;13082;52.374;4.946;2022-12-15T10:46:17;4.30;99.90
25092;DHT22;13082;52.374;4.946;2022-12-15T10:48:50;4.50;99.90
25092;DHT22;13082;52.374;4.946;2022-12-15T10:51:18;4.60;99.90
25092;DHT22;13082;52.374;4.946;2022-12-15T10:53:53;4.50;99.90
25092;DHT22;13082;52.374;4.946;2022-12-15T10:56:27;4.40;99.90
25092;DHT22;13082;52.374;4.946;2022-12-15T10:58:57;4.40;99.90
25092;DHT22;13082;52.374;4.946;2022-12-15T11:01:26;4.40;99.90
25092;DHT22;13082;52.374;4.946;2022-12-15T11:03:52;4.50;99.90
25092;DHT22;13082;52.374;4.946;2022-12-15T11:06:32;4.50;99.90
25092;DHT22;13082;52.374;4.946;2022-12-15T11:09:36;4.40;99.90
25092;DHT22;13082;52.374;4.946;2022-12-15T11:12:23;4.60;99.90
25092;DHT22;13082;52.374;4.946;2022-12-15T11:15:36;4.90;99.90
25092;DHT22;13082;52.374;4.946;2022-12-15T11:18:36;5.10;99.90
25092;DHT22;13082;52.374;4.946;2022-12-15T11:21:12;5.30;99.90
25092;DHT22;13082;52.374;4.946;2022-12-15T11:31:41;4.70;99.90
25092;DHT22;13082;52.374;4.946;2022-12-15T11:34:24;4.60;99.90
25092;DHT22;13082;52.374;4.946;2022-12-15T11:37:12;4.50;99.90
25092;DHT22;13082;52.374;4.946;2022-12-15T11:52:10;3.90;99.90
25092;DHT22;13082;52.374;4.946;2022-12-15T11:54:54;4.00;99.90
25092;DHT22;13082;52.374;4.946;2022-12-15T12:16:57;4.30;99.90
25092;DHT22;13082;52.374;4.946;2022-12-15T12:19:54;4.30;99.90
25092;DHT22;13082;52.374;4.946;2022-12-15T12:22:22;4.40;99.90
25092;DHT22;13082;52.374;4.946;2022-12-15T12:25:07;4.50;99.90
25092;DHT22;13082;52.374;4.946;2022-12-15T12:27:53;4.70;99.90
25092;DHT22;13082;52.374;4.946;2022-12-15T12:30:23;4.90;99.90
25092;DHT22;13082;52.374;4.946;2022-12-15T12:33:11;5.20;99.90
25092;DHT22;13082;52.374;4.946;2022-12-15T12:35:55;5.40;99.90
25092;DHT22;13082;52.374;4.946;2022-12-15T12:38:30;5.50;99.90
25092;DHT22;13082;52.374;4.946;2022-12-15T12:41:03;5.60;99.90
25092;DHT22;13082;52.374;4.946;2022-12-15T12:43:32;5.70;99.90
25092;DHT22;13082;52.374;4.946;2022-12-15T12:53:48;6.10;99.90
25092;DHT22;13082;52.374;4.946;2022-12-15T12:58:56;6.20;99.90
25092;DHT22;13082;52.374;4.946;2022-12-15T13:01:30;6.30;99.90
25092;DHT22;13082;52.374;4.946;2022-12-15T13:04:36;6.30;99.90
25092;DHT22;13082;52.374;4.946;2022-12-15T13:07:28;6.20;99.90
25092;DHT22;13082;52.374;4.946;2022-12-15T13:10:21;6.30;99.90
25092;DHT22;13082;52.374;4.946;2022-12-15T13:12:50;6.30;99.90
25092;DHT22;13082;52.374;4.946;2022-12-15T13:15:36;6.40;99.90
25092;DHT22;13082;52.374;4.946;2022-12-15T13:18:10;6.50;99.90
25092;DHT22;13082;52.374;4.946;2022-12-15T13:20:37;6.60;99.90
25092;DHT22;13082;52.374;4.946;2022-12-15T13:23:35;6.70;99.90
25092;DHT22;13082;52.374;4.946;2022-12-15T13:26:10;6.70;99.90
25092;DHT22;13082;52.374;4.946;2022-12-15T13:28:41;6.70;99.90
25092;DHT22;13082;52.374;4.946;2022-12-15T13:31:27;6.80;99.90
25092;DHT22;13082;52.374;4.946;2022-12-15T13:34:08;6.80;99.90
25092;DHT22;13082;52.374;4.946;2022-12-15T13:41:29;7.00;99.90
25092;DHT22;13082;52.374;4.946;2022-12-15T13:43:57;7.10;99.90
25092;DHT22;13082;52.374;4.946;2022-12-15T13:46:27;7.20;99.90
25092;DHT22;13082;52.374;4.946;2022-12-15T13:49:03;7.20;99.90
25092;DHT22;13082;52.374;4.946;2022-12-15T13:51:33;7.20;99.90
25092;DHT22;13082;52.374;4.946;2022-12-15T13:54:03;7.30;99.90
25092;DHT22;13082;52.374;4.946;2022-12-15T14:01:48;7.00;99.90
25092;DHT22;13082;52.374;4.946;2022-12-15T14:04:14;6.90;99.90
25092;DHT22;13082;52.374;4.946;2022-12-15T14:06:56;6.80;99.90
25092;DHT22;13082;52.374;4.946;2022-12-15T14:09:31;6.80;99.90
25092;DHT22;13082;52.374;4.946;2022-12-15T14:12:00;6.80;99.90
25092;DHT22;13082;52.374;4.946;2022-12-15T14:14:36;6.70;99.90
25092;DHT22;13082;52.374;4.946;2022-12-15T14:17:06;6.70;99.90
25092;DHT22;13082;52.374;4.946;2022-12-15T14:19:41;6.60;99.90
25092;DHT22;13082;52.374;4.946;2022-12-15T14:22:39;6.60;99.90
25092;DHT22;13082;52.374;4.946;2022-12-15T14:25:31;6.60;99.90
25092;DHT22;13082;52.374;4.946;2022-12-15T14:27:58;6.50;99.90
25092;DHT22;13082;52.374;4.946;2022-12-15T14:30:28;6.40;99.90
25092;DHT22;13082;52.374;4.946;2022-12-15T14:33:07;6.30;99.90
25092;DHT22;13082;52.374;4.946;2022-12-15T14:35:39;6.20;99.90
25092;DHT22;13082;52.374;4.946;2022-12-15T14:38:13;6.00;99.90
25092;DHT22;13082;52.374;4.946;2022-12-15T14:40:40;5.70;99.90
25092;DHT22;13082;52.374;4.946;2022-12-15T14:43:16;5.60;99.90
25092;DHT22;13082;52.374;4.946;2022-12-15T14:45:42;5.50;99.90
25092;DHT22;13082;52.374;4.946;2022-12-15T14:48:08;5.50;99.90
25092;DHT22;13082;52.374;4.946;2022-12-15T14:50:35;5.50;99.90
25092;DHT22;13082;52.374;4.946;2022-12-15T14:53:14;5.50;99.90
25092;DHT22;13082;52.374;4.946;2022-12-15T14:55:41;5.50;99.90
25092;DHT22;13082;52.374;4.946;2022-12-15T14:58:33;5.40;99.90
25092;DHT22;13082;52.374;4.946;2022-12-15T15:01:00;5.40;99.90
25092;DHT22;13082;52.374;4.946;2022-12-15T15:03:35;5.40;99.90
25092;DHT22;13082;52.374;4.946;2022-12-15T15:11:24;5.30;99.90
25092;DHT22;13082;52.374;4.946;2022-12-15T15:13:57;5.30;99.90
25092;DHT22;13082;52.374;4.946;2022-12-15T15:16:24;5.30;99.90
25092;DHT22;13082;52.374;4.946;2022-12-15T15:18:52;5.30;99.90
25092;DHT22;13082;52.374;4.946;2022-12-15T15:21:24;5.20;99.90
25092;DHT22;13082;52.374;4.946;2022-12-15T15:26:35;5.20;99.90
25092;DHT22;13082;52.374;4.946;2022-12-15T15:29:01;5.20;99.90
25092;DHT22;13082;52.374;4.946;2022-12-15T15:31:33;5.20;99.90
25092;DHT22;13082;52.374;4.946;2022-12-15T15:33:59;5.20;99.90
25092;DHT22;13082;52.374;4.946;2022-12-15T15:36:33;5.20;99.90
25092;DHT22;13082;52.374;4.946;2022-12-15T15:39:00;5.10;99.90
25092;DHT22;13082;52.374;4.946;2022-12-15T15:41:31;5.10;99.90
25092;DHT22;13082;52.374;4.946;2022-12-15T15:43:58;5.10;99.90
25092;DHT22;13082;52.374;4.946;2022-12-15T15:46:27;5.00;99.90
25092;DHT22;13082;52.374;4.946;2022-12-15T15:48:59;4.80;99.90
25092;DHT22;13082;52.374;4.946;2022-12-15T15:51:29;4.60;99.90
25092;DHT22;13082;52.374;4.946;2022-12-15T15:53:59;4.50;99.90
25092;DHT22;13082;52.374;4.946;2022-12-15T15:56:26;4.40;99.90
25092;DHT22;13082;52.374;4.946;2022-12-15T15:58:52;4.30;99.90
25092;DHT22;13082;52.374;4.946;2022-12-15T16:01:18;4.20;99.90
25092;DHT22;13082;52.374;4.946;2022-12-15T16:03:44;4.10;99.90
25092;DHT22;13082;52.374;4.946;2022-12-15T16:06:18;4.00;99.90
25092;DHT22;13082;52.374;4.946;2022-12-15T16:08:49;4.10;99.90
25092;DHT22;13082;52.374;4.946;2022-12-15T16:11:15;4.10;99.90
25092;DHT22;13082;52.374;4.946;2022-12-15T16:13:41;4.10;99.90
25092;DHT22;13082;52.374;4.946;2022-12-15T16:16:17;4.10;99.90
25092;DHT22;13082;52.374;4.946;2022-12-15T16:18:43;4.20;99.90
25092;DHT22;13082;52.374;4.946;2022-12-15T16:21:11;4.20;99.90
25092;DHT22;13082;52.374;4.946;2022-12-15T16:23:39;4.20;99.90
25092;DHT22;13082;52.374;4.946;2022-12-15T16:26:13;4.10;99.90
25092;DHT22;13082;52.374;4.946;2022-12-15T16:28:39;4.10;99.90
25092;DHT22;13082;52.374;4.946;2022-12-15T16:31:10;4.10;99.90
25092;DHT22;13082;52.374;4.946;2022-12-15T16:33:38;4.00;99.90
25092;DHT22;13082;52.374;4.946;2022-12-15T16:36:12;4.00;99.90
25092;DHT22;13082;52.374;4.946;2022-12-15T16:38:39;4.00;99.90
25092;DHT22;13082;52.374;4.946;2022-12-15T16:41:07;4.00;99.90
25092;DHT22;13082;52.374;4.946;2022-12-15T16:43:35;4.10;99.90
25092;DHT22;13082;52.374;4.946;2022-12-15T16:46:01;4.20;99.90
25092;DHT22;13082;52.374;4.946;2022-12-15T16:48:26;4.30;99.90
25092;DHT22;13082;52.374;4.946;2022-12-15T16:50:54;4.30;99.90
25092;DHT22;13082;52.374;4.946;2022-12-15T16:53:28;4.40;99.90
25092;DHT22;13082;52.374;4.946;2022-12-15T16:55:56;4.30;99.90
25092;DHT22;13082;52.374;4.946;2022-12-15T16:58:23;4.30;99.90
25092;DHT22;13082;52.374;4.946;2022-12-15T17:00:50;4.30;99.90
25092;DHT22;13082;52.374;4.946;2022-12-15T17:03:17;4.30;99.90
25092;DHT22;13082;52.374;4.946;2022-12-15T17:05:47;4.20;99.90
25092;DHT22;13082;52.374;4.946;2022-12-15T17:08:17;4.20;99.90
25092;DHT22;13082;52.374;4.946;2022-12-15T17:10:46;4.10;99.90
25092;DHT22;13082;52.374;4.946;2022-12-15T17:13:20;3.90;99.90
25092;DHT22;13082;52.374;4.946;2022-12-15T17:15:47;3.90;99.90
25092;DHT22;13082;52.374;4.946;2022-12-15T17:18:13;3.90;99.90
25092;DHT22;13082;52.374;4.946;2022-12-15T17:20:40;3.80;99.90
25092;DHT22;13082;52.374;4.946;2022-12-15T17:23:12;3.80;99.90
25092;DHT22;13082;52.374;4.946;2022-12-15T17:25:40;3.80;99.90
25092;DHT22;13082;52.374;4.946;2022-12-15T17:28:32;3.80;99.90
25092;DHT22;13082;52.374;4.946;2022-12-15T17:30:57;3.80;99.90
25092;DHT22;13082;52.374;4.946;2022-12-15T17:33:26;3.70;99.90
25092;DHT22;13082;52.374;4.946;2022-12-15T17:35:54;3.70;99.90
25092;DHT22;13082;52.374;4.946;2022-12-15T17:38:21;3.70;99.90
25092;DHT22;13082;52.374;4.946;2022-12-15T17:40:48;3.70;99.90
25092;DHT22;13082;52.374;4.946;2022-12-15T17:43:19;3.70;99.90
25092;DHT22;13082;52.374;4.946;2022-12-15T17:45:45;3.70;99.90
25092;DHT22;13082;52.374;4.946;2022-12-15T17:48:11;3.60;99.90
25092;DHT22;13082;52.374;4.946;2022-12-15T17:50:38;3.60;99.90
25092;DHT22;13082;52.374;4.946;2022-12-15T17:53:04;3.50;99.90
25092;DHT22;13082;52.374;4.946;2022-12-15T17:55:31;3.50;99.90
25092;DHT22;13082;52.374;4.946;2022-12-15T17:57:58;3.40;99.90